Time,TemperatureF,DewpointF,PressureIn,WindDirection,WindDirectionDegrees,WindSpeedMPH,WindSpeedGustMPH,Humidity,HourlyPrecipIn,Conditions,Clouds,dailyrainin,SolarRadiationWatts/m^2,SoftwareType,DateUTC
2013-09-24 00:03:00,58.0,29.0,-100.00,NNW,335,5.0,7.0,33,0.00,,,0.00,0.000000,,2013-09-24 07:03:00,
2013-09-24 00:12:00,58.0,29.0,-100.00,NNW,335,5.0,7.0,33,0.00,,,0.00,0.000000,,2013-09-24 07:12:00,
2013-09-24 00:21:00,58.0,29.0,-100.00,NNW,335,5.0,7.0,33,0.00,,,0.00,0.000000,,2013-09-24 07:21:00,
2013-09-24 00:52:00,55.0,27.0,-100.00,NW,323,5.0,7.0,34,0.00,,,0.00,0.000000,,2013-09-24 07:52:00,
2013-09-24 01:02:00,55.0,27.0,-100.00,NW,323,5.0,7.0,34,0.00,,,0.00,0.000000,,2013-09-24 08:02:00,
2013-09-24 04:11:00,52.0,33.0,-100.00,South,172,7.0,11.0,49,-99.99,,,0.00,0.000000,,2013-09-24 11:11:00,
2013-09-24 04:22:00,52.0,33.0,-100.00,South,172,7.0,11.0,49,-99.99,,,0.00,0.000000,,2013-09-24 11:22:00,
2013-09-24 06:52:00,52.0,34.0,-100.00,WNW,296,8.0,14.0,51,-99.99,,,0.00,0.000000,,2013-09-24 13:52:00,
2013-09-24 07:02:00,52.0,34.0,-100.00,WNW,296,8.0,14.0,51,-99.99,,,0.00,0.000000,,2013-09-24 14:02:00,
2013-09-24 07:12:00,52.0,34.0,-100.00,WNW,296,8.0,14.0,51,-99.99,,,0.00,0.000000,,2013-09-24 14:12:00,
2013-09-24 07:21:00,52.0,34.0,-100.00,WNW,296,8.0,14.0,51,-99.99,,,0.00,0.000000,,2013-09-24 14:21:00,
2013-09-24 08:54:00,58.0,34.0,-100.00,WNW,300,7.0,16.0,40,-99.99,,,-99.99,118.000000,,2013-09-24 15:54:00,
2013-09-24 09:03:00,58.0,34.0,-100.00,WNW,300,7.0,16.0,40,-99.99,,,-99.99,118.000000,,2013-09-24 16:03:00,
2013-09-24 09:13:00,58.0,34.0,-100.00,WNW,300,7.0,16.0,40,-99.99,,,-99.99,118.000000,,2013-09-24 16:13:00,
2013-09-24 09:22:00,58.0,34.0,-100.00,WNW,300,7.0,16.0,40,-99.99,,,-99.99,118.000000,,2013-09-24 16:22:00,
2013-09-24 09:53:00,65.0,32.0,-100.00,WNW,293,9.0,14.0,29,0.00,,,0.00,402.000000,,2013-09-24 16:53:00,
2013-09-24 10:02:00,65.0,32.0,-100.00,WNW,293,9.0,14.0,29,0.00,,,0.00,402.000000,,2013-09-24 17:02:00,
2013-09-24 10:13:00,65.0,32.0,-100.00,WNW,293,9.0,14.0,29,0.00,,,0.00,402.000000,,2013-09-24 17:13:00,
2013-09-24 10:23:00,65.0,32.0,-100.00,WNW,293,9.0,14.0,29,0.00,,,0.00,402.000000,,2013-09-24 17:23:00,
2013-09-24 10:54:00,71.0,28.0,-100.00,WNW,294,8.0,15.0,20,0.00,,,0.00,673.000000,,2013-09-24 17:54:00,
2013-09-24 11:03:00,71.0,28.0,-100.00,WNW,294,8.0,15.0,20,0.00,,,0.00,673.000000,,2013-09-24 18:03:00,
2013-09-24 11:12:00,71.0,28.0,-100.00,WNW,294,8.0,15.0,20,0.00,,,0.00,673.000000,,2013-09-24 18:12:00,
2013-09-24 11:22:00,71.0,28.0,-100.00,WNW,294,8.0,15.0,20,0.00,,,0.00,673.000000,,2013-09-24 18:22:00,
2013-09-24 11:52:00,76.0,20.0,-100.00,NW,305,9.0,20.0,12,0.00,,,0.00,835.000000,,2013-09-24 18:52:00,
2013-09-24 12:01:00,76.0,20.0,-100.00,NW,305,9.0,20.0,12,0.00,,,0.00,835.000000,,2013-09-24 19:01:00,
2013-09-24 12:11:00,76.0,20.0,-100.00,NW,305,9.0,20.0,12,0.00,,,0.00,835.000000,,2013-09-24 19:11:00,
2013-09-24 12:22:00,76.0,20.0,-100.00,NW,305,9.0,20.0,12,0.00,,,0.00,835.000000,,2013-09-24 19:22:00,
2013-09-24 12:52:00,76.0,16.0,-100.00,WNW,299,16.0,27.0,10,0.00,,,0.00,952.000000,,2013-09-24 19:52:00,
2013-09-24 13:02:00,76.0,16.0,-100.00,WNW,299,16.0,27.0,10,0.00,,,0.00,952.000000,,2013-09-24 20:02:00,
2013-09-24 13:11:00,76.0,16.0,-100.00,WNW,299,16.0,27.0,10,0.00,,,0.00,952.000000,,2013-09-24 20:11:00,
2013-09-24 13:22:00,76.0,16.0,-100.00,WNW,299,16.0,27.0,10,0.00,,,0.00,952.000000,,2013-09-24 20:22:00,
2013-09-24 13:52:00,78.0,15.0,-100.00,WNW,291,14.0,24.0,9,0.00,,,0.00,981.000000,,2013-09-24 20:52:00,
2013-09-24 14:02:00,78.0,15.0,-100.00,WNW,291,14.0,24.0,9,0.00,,,0.00,981.000000,,2013-09-24 21:02:00,
2013-09-24 14:12:00,78.0,15.0,-100.00,WNW,291,14.0,24.0,9,0.00,,,0.00,981.000000,,2013-09-24 21:12:00,
2013-09-24 14:21:00,78.0,15.0,-100.00,WNW,291,14.0,24.0,9,0.00,,,0.00,981.000000,,2013-09-24 21:21:00,
2013-09-24 14:54:00,81.0,19.0,-100.00,WNW,300,13.0,26.0,10,0.00,,,0.00,927.000000,,2013-09-24 21:54:00,
2013-09-24 15:04:00,81.0,19.0,-100.00,WNW,300,13.0,26.0,10,0.00,,,0.00,927.000000,,2013-09-24 22:04:00,
2013-09-24 15:13:00,81.0,19.0,-100.00,WNW,300,13.0,26.0,10,0.00,,,0.00,927.000000,,2013-09-24 22:13:00,
2013-09-24 15:23:00,81.0,19.0,-100.00,WNW,300,13.0,26.0,10,0.00,,,0.00,927.000000,,2013-09-24 22:23:00,
2013-09-24 15:54:00,79.0,15.0,-100.00,WNW,302,13.0,27.0,9,0.00,,,0.00,810.000000,,2013-09-24 22:54:00,
2013-09-24 16:03:00,79.0,15.0,-100.00,WNW,302,13.0,27.0,9,0.00,,,0.00,810.000000,,2013-09-24 23:03:00,
2013-09-24 16:13:00,79.0,15.0,-100.00,WNW,302,13.0,27.0,9,0.00,,,0.00,810.000000,,2013-09-24 23:13:00,
2013-09-24 16:22:00,79.0,15.0,-100.00,WNW,302,13.0,27.0,9,0.00,,,0.00,810.000000,,2013-09-24 23:22:00,
2013-09-24 16:53:00,77.0,20.0,-100.00,NW,305,14.0,30.0,12,0.00,,,0.00,638.000000,,2013-09-24 23:53:00,
2013-09-24 17:02:00,77.0,20.0,-100.00,NW,305,14.0,30.0,12,0.00,,,0.00,638.000000,,2013-09-25 00:02:00,
2013-09-24 17:12:00,77.0,20.0,-100.00,NW,305,14.0,30.0,12,0.00,,,0.00,638.000000,,2013-09-25 00:12:00,
2013-09-24 17:22:00,77.0,20.0,-100.00,NW,305,14.0,30.0,12,0.00,,,0.00,638.000000,,2013-09-25 00:22:00,
2013-09-24 17:52:00,72.0,23.0,-100.00,WNW,301,14.0,30.0,16,0.00,,,0.00,419.000000,,2013-09-25 00:52:00,
2013-09-24 18:02:00,72.0,23.0,-100.00,WNW,301,14.0,30.0,16,0.00,,,0.00,419.000000,,2013-09-25 01:02:00,
2013-09-24 18:12:00,72.0,23.0,-100.00,WNW,301,14.0,30.0,16,0.00,,,0.00,419.000000,,2013-09-25 01:12:00,
2013-09-24 18:21:00,72.0,23.0,-100.00,WNW,301,14.0,30.0,16,0.00,,,0.00,419.000000,,2013-09-25 01:21:00,
2013-09-24 18:52:00,68.0,24.0,-100.00,NW,306,14.0,26.0,19,0.00,,,0.00,113.000000,,2013-09-25 01:52:00,
2013-09-24 19:02:00,68.0,24.0,-100.00,NW,306,14.0,26.0,19,0.00,,,0.00,113.000000,,2013-09-25 02:02:00,
2013-09-24 19:11:00,68.0,24.0,-100.00,NW,306,14.0,26.0,19,0.00,,,0.00,113.000000,,2013-09-25 02:11:00,
2013-09-24 19:21:00,68.0,24.0,-100.00,NW,306,14.0,26.0,19,0.00,,,0.00,113.000000,,2013-09-25 02:21:00,
2013-09-24 19:52:00,64.0,25.0,-100.00,WNW,303,10.0,22.0,23,0.00,,,0.00,3.000000,,2013-09-25 02:52:00,
2013-09-24 20:02:00,64.0,25.0,-100.00,WNW,303,10.0,22.0,23,0.00,,,0.00,3.000000,,2013-09-25 03:02:00,
2013-09-24 20:11:00,64.0,25.0,-100.00,WNW,303,10.0,22.0,23,0.00,,,0.00,3.000000,,2013-09-25 03:11:00,
2013-09-24 20:23:00,64.0,25.0,-100.00,WNW,303,10.0,22.0,23,0.00,,,0.00,3.000000,,2013-09-25 03:23:00,
2013-09-24 20:54:00,61.0,24.0,-100.00,NW,305,11.0,20.0,24,0.00,,,0.00,0.000000,,2013-09-25 03:54:00,
2013-09-24 21:04:00,61.0,24.0,-100.00,NW,305,11.0,20.0,24,0.00,,,0.00,0.000000,,2013-09-25 04:04:00,
2013-09-24 21:14:00,61.0,24.0,-100.00,NW,305,11.0,20.0,24,0.00,,,0.00,0.000000,,2013-09-25 04:14:00,
2013-09-24 21:24:00,61.0,24.0,-100.00,NW,305,11.0,20.0,24,0.00,,,0.00,0.000000,,2013-09-25 04:24:00,
2013-09-24 21:54:00,61.0,27.0,-100.00,WNW,300,10.0,21.0,27,0.00,,,0.00,0.000000,,2013-09-25 04:54:00,
2013-09-24 22:03:00,61.0,27.0,-100.00,WNW,300,10.0,21.0,27,0.00,,,0.00,0.000000,,2013-09-25 05:03:00,
2013-09-24 22:12:00,61.0,27.0,-100.00,WNW,300,10.0,21.0,27,0.00,,,0.00,0.000000,,2013-09-25 05:12:00,
2013-09-24 22:23:00,61.0,27.0,-100.00,WNW,300,10.0,21.0,27,0.00,,,0.00,0.000000,,2013-09-25 05:23:00,
2013-09-24 22:53:00,61.0,25.0,-100.00,WNW,298,12.0,22.0,25,0.00,,,0.00,0.000000,,2013-09-25 05:53:00,
2013-09-24 23:02:00,61.0,25.0,-100.00,WNW,298,12.0,22.0,25,0.00,,,0.00,0.000000,,2013-09-25 06:02:00,
2013-09-24 23:13:00,61.0,25.0,-100.00,WNW,298,12.0,22.0,25,0.00,,,0.00,0.000000,,2013-09-25 06:13:00,
2013-09-24 23:23:00,61.0,25.0,-100.00,WNW,298,12.0,22.0,25,0.00,,,0.00,0.000000,,2013-09-25 06:23:00,
2013-09-24 23:52:00,59.0,28.0,-100.00,WNW,303,11.0,25.0,30,0.00,,,0.00,0.000000,,2013-09-25 06:52:00,